createdAt,value
2018-04-08T00:00:59.874Z,11.15
2018-04-08T00:03:28.004Z,10.18
2018-04-08T00:05:56.177Z,10.65
2018-04-08T00:08:24.321Z,10.18
2018-04-08T00:10:52.495Z,10.93
2018-04-08T00:13:20.635Z,10.05
2018-04-08T00:15:48.799Z,10.98
2018-04-08T00:18:17.697Z,11.15
2018-04-08T00:20:45.870Z,10.85
2018-04-08T00:23:14.036Z,10.48
2018-04-08T00:25:42.199Z,10.43
2018-04-08T00:28:10.337Z,11.50
2018-04-08T00:30:38.482Z,11.93
2018-04-08T00:33:06.645Z,10.50
2018-04-08T00:35:34.778Z,10.13
2018-04-08T00:38:02.944Z,10.75
2018-04-08T00:40:31.088Z,10.77
2018-04-08T00:42:59.246Z,11.85
2018-04-08T00:45:27.395Z,10.73
2018-04-08T00:47:55.558Z,11.73
2018-04-08T00:50:24.461Z,10.85
2018-04-08T00:52:52.630Z,10.63
2018-04-08T00:55:21.529Z,10.65
2018-04-08T00:57:49.693Z,10.70
2018-04-08T01:00:18.598Z,10.57
2018-04-08T01:02:46.760Z,11.52
2018-04-08T01:05:15.657Z,11.50
2018-04-08T01:07:43.820Z,11.12
2018-04-08T01:10:12.718Z,12.35
2018-04-08T01:12:40.903Z,11.68
2018-04-08T01:15:09.057Z,11.98
2018-04-08T01:17:37.221Z,11.88
2018-04-08T01:20:05.362Z,11.32
2018-04-08T01:22:33.521Z,11.73
2018-04-08T01:25:01.666Z,11.48
2018-04-08T01:27:29.830Z,11.88
2018-04-08T01:29:57.966Z,10.98
2018-04-08T01:32:26.133Z,10.95
2018-04-08T01:34:54.273Z,11.35
2018-04-08T01:37:22.438Z,12.13
2018-04-08T01:39:50.577Z,11.40
2018-04-08T01:42:19.506Z,12.20
2018-04-08T01:44:47.648Z,11.98
2018-04-08T01:47:16.575Z,11.00
2018-04-08T01:49:44.714Z,12.45
2018-04-08T01:52:13.646Z,11.15
2018-04-08T01:54:41.781Z,11.18
2018-04-08T01:57:10.704Z,12.70
2018-04-08T01:59:38.843Z,13.90
2018-04-08T02:02:07.775Z,13.35
2018-04-08T02:04:35.909Z,11.02
2018-04-08T02:07:04.073Z,11.43
2018-04-08T02:09:32.209Z,11.73
2018-04-08T02:12:00.370Z,11.63
2018-04-08T02:14:28.504Z,11.57
2018-04-08T02:16:56.670Z,12.00
2018-04-08T02:19:24.808Z,11.23
2018-04-08T02:21:52.973Z,12.30
2018-04-08T02:24:21.109Z,14.63
2018-04-08T02:26:49.274Z,13.40
2018-04-08T02:29:17.414Z,12.63
2018-04-08T02:31:46.129Z,13.95
2018-04-08T02:34:14.266Z,12.52
2018-04-08T02:36:42.398Z,12.98
2018-04-08T02:39:10.562Z,13.52
2018-04-08T02:41:38.693Z,14.02
2018-04-08T02:44:06.855Z,13.20
2018-04-08T02:46:34.984Z,14.52
2018-04-08T02:49:03.180Z,13.35
2018-04-08T02:51:31.314Z,13.85
2018-04-08T02:53:59.480Z,14.20
2018-04-08T02:56:28.381Z,13.48
2018-04-08T02:58:56.545Z,15.45
2018-04-08T03:01:24.689Z,14.77
2018-04-08T03:03:52.851Z,13.65
2018-04-08T03:06:20.980Z,13.50
2018-04-08T03:08:49.142Z,16.05
2018-04-08T03:11:17.275Z,14.63
2018-04-08T03:13:45.435Z,17.10
2018-04-08T03:16:13.570Z,14.93
2018-04-08T03:18:41.726Z,13.88
2018-04-08T03:21:10.634Z,14.27
2018-04-08T03:23:38.792Z,14.55
2018-04-08T03:26:07.690Z,13.05
2018-04-08T03:28:35.853Z,14.40
2018-04-08T03:31:04.745Z,14.85
2018-04-08T03:33:32.905Z,12.37
2018-04-08T03:38:36.228Z,14.15
2018-04-08T03:41:04.334Z,13.70
2018-04-08T03:43:32.491Z,14.50
2018-04-08T03:46:00.625Z,14.32
2018-04-08T03:48:28.789Z,15.25
2018-04-08T03:50:56.917Z,14.52
2018-04-08T03:53:25.077Z,13.65
2018-04-08T03:55:53.210Z,14.90
2018-04-08T03:58:21.370Z,14.57
2018-04-08T04:00:49.506Z,14.90
2018-04-08T04:03:17.667Z,15.05
2018-04-08T04:05:45.797Z,13.02
2018-04-08T04:08:13.957Z,14.38
2018-04-08T04:10:42.095Z,13.90
2018-04-08T04:13:10.254Z,14.77
2018-04-08T04:15:38.385Z,15.57
2018-04-08T04:18:18.235Z,14.65
2018-04-08T04:20:58.106Z,14.68
2018-04-08T04:23:37.965Z,12.35
2018-04-08T04:26:17.834Z,13.90
2018-04-08T04:28:45.995Z,12.70
2018-04-08T04:31:14.125Z,12.50
2018-04-08T04:33:42.319Z,13.25
2018-04-08T04:36:10.447Z,13.25
2018-04-08T04:38:38.602Z,12.30
2018-04-08T04:41:06.729Z,14.25
2018-04-08T04:43:35.654Z,13.20
2018-04-08T04:46:03.797Z,15.00
2018-04-08T04:48:32.721Z,13.65
2018-04-08T04:51:00.850Z,13.25
2018-04-08T04:53:29.013Z,13.70
2018-04-08T04:55:57.146Z,12.68
2018-04-08T04:58:25.307Z,12.88
2018-04-08T05:00:53.445Z,11.80
2018-04-08T05:03:21.612Z,13.00
2018-04-08T05:05:49.741Z,12.20
2018-04-08T05:08:17.906Z,12.80
2018-04-08T05:10:46.057Z,11.77
2018-04-08T05:13:14.196Z,12.48
2018-04-08T05:15:42.358Z,13.25
2018-04-08T05:18:10.493Z,13.23
2018-04-08T05:20:38.860Z,12.75
2018-04-08T05:23:07.373Z,13.38
2018-04-08T05:25:36.091Z,12.32
2018-04-08T05:28:04.233Z,12.45
2018-04-08T05:30:32.444Z,12.75
2018-04-08T05:33:00.596Z,11.93
2018-04-08T05:35:28.791Z,11.43
2018-04-08T05:37:56.951Z,10.73
2018-04-08T05:40:25.125Z,11.60
2018-04-08T05:42:53.260Z,12.30
2018-04-08T05:45:21.425Z,12.43
2018-04-08T05:47:49.560Z,11.25
2018-04-08T05:50:17.723Z,10.52
2018-04-08T05:52:45.861Z,10.68
2018-04-08T05:55:14.029Z,11.45
2018-04-08T05:57:42.172Z,11.77
2018-04-08T06:00:11.102Z,11.48
2018-04-08T06:02:39.276Z,10.93
2018-04-08T06:05:07.451Z,10.88
2018-04-08T06:07:36.197Z,11.43
2018-04-08T06:10:04.396Z,12.45
2018-04-08T06:12:32.525Z,11.32
2018-04-08T06:15:00.689Z,11.27
2018-04-08T06:17:28.830Z,10.80
2018-04-08T06:19:57.646Z,11.88
2018-04-08T06:22:25.797Z,12.48
2018-04-08T06:24:53.991Z,11.12
2018-04-08T06:27:22.149Z,10.30
2018-04-08T06:29:50.319Z,10.80
2018-04-08T06:32:18.470Z,10.85
2018-04-08T06:34:46.637Z,10.20
2018-04-08T06:37:14.775Z,11.45
2018-04-08T06:39:42.945Z,10.48
2018-04-08T06:42:11.081Z,10.65
2018-04-08T06:44:39.247Z,10.73
2018-04-08T06:47:07.380Z,12.27
2018-04-08T06:49:35.545Z,11.23
2018-04-08T06:52:04.562Z,11.43
2018-04-08T06:54:32.731Z,11.52
2018-04-08T06:57:01.079Z,10.15
2018-04-08T06:59:30.018Z,10.35
2018-04-08T07:01:58.158Z,10.98
2018-04-08T07:04:27.076Z,9.95
2018-04-08T07:06:55.228Z,10.65
2018-04-08T07:09:24.182Z,11.30
2018-04-08T07:11:52.582Z,9.40
2018-04-08T07:14:21.495Z,11.45
2018-04-08T07:16:51.090Z,9.65
2018-04-08T07:19:19.285Z,10.32
2018-04-08T07:21:47.473Z,11.12
2018-04-08T07:24:15.610Z,10.68
2018-04-08T07:26:43.778Z,10.70
2018-04-08T07:29:13.119Z,9.98
2018-04-08T07:31:41.280Z,10.60
2018-04-08T07:34:09.426Z,11.23
2018-04-08T07:36:37.634Z,10.77
2018-04-08T07:39:06.572Z,10.95
2018-04-08T07:41:34.758Z,10.40
2018-04-08T07:44:02.930Z,10.17
2018-04-08T07:46:31.096Z,10.97
2018-04-08T07:48:59.238Z,11.30
2018-04-08T07:51:27.747Z,11.67
2018-04-08T07:53:55.894Z,11.70
2018-04-08T07:56:24.874Z,10.30
2018-04-08T07:58:53.047Z,11.90
2018-04-08T08:01:21.264Z,11.30
2018-04-08T08:03:49.405Z,10.37
2018-04-08T08:06:17.569Z,11.23
2018-04-08T08:08:46.080Z,9.63
2018-04-08T08:11:14.279Z,10.67
2018-04-08T08:13:43.189Z,11.33
2018-04-08T08:16:11.358Z,10.67
2018-04-08T08:18:39.525Z,11.60
2018-04-08T08:21:08.143Z,11.97
2018-04-08T08:23:36.331Z,11.50
2018-04-08T08:26:04.532Z,11.40
2018-04-08T08:28:32.669Z,10.70
2018-04-08T08:31:00.838Z,11.93
2018-04-08T08:33:28.988Z,11.30
2018-04-08T08:35:57.198Z,11.30
2018-04-08T08:38:25.470Z,10.97
2018-04-08T08:40:53.669Z,11.70
2018-04-08T08:43:21.812Z,11.23
2018-04-08T08:45:49.982Z,11.40
2018-04-08T08:48:18.119Z,10.53
2018-04-08T08:50:46.286Z,11.57
2018-04-08T08:53:15.190Z,11.33
2018-04-08T08:55:43.358Z,11.50
2018-04-08T08:58:11.521Z,11.23
2018-04-08T09:00:39.689Z,11.13
2018-04-08T09:03:08.594Z,11.60
2018-04-08T09:05:37.336Z,11.20
2018-04-08T09:08:05.484Z,11.33
2018-04-08T09:10:33.657Z,11.00
2018-04-08T09:13:01.800Z,11.13
2018-04-08T09:15:29.965Z,11.07
2018-04-08T09:17:58.868Z,10.57
2018-04-08T09:20:29.829Z,11.13
2018-04-08T09:23:03.536Z,10.87
2018-04-08T09:25:36.309Z,10.80
2018-04-08T09:28:04.463Z,12.17
2018-04-08T09:30:32.630Z,12.53
2018-04-08T09:33:00.773Z,10.10
2018-04-08T09:35:29.830Z,11.73
2018-04-08T09:37:57.979Z,9.95
2018-04-08T09:40:26.149Z,11.00
2018-04-08T09:42:54.298Z,11.20
2018-04-08T09:45:22.468Z,10.83
2018-04-08T09:47:50.608Z,11.17
2018-04-08T09:50:18.777Z,9.90
2018-04-08T09:52:46.945Z,11.27
2018-04-08T09:55:15.089Z,12.70
2018-04-08T09:57:49.878Z,10.98
2018-04-08T10:00:23.646Z,10.70
2018-04-08T10:02:57.529Z,9.65
2018-04-08T10:05:25.717Z,11.10
2018-04-08T10:07:53.874Z,11.63
2018-04-08T10:10:22.019Z,10.85
2018-04-08T10:12:50.196Z,10.70
2018-04-08T10:15:18.343Z,10.82
2018-04-08T10:17:46.514Z,8.93
2018-04-08T10:20:14.664Z,10.50
2018-04-08T10:22:42.833Z,9.88
2018-04-08T10:25:10.983Z,11.02
2018-04-08T10:27:39.155Z,10.73
2018-04-08T10:30:07.307Z,10.15
2018-04-08T10:32:35.483Z,11.43
2018-04-08T10:35:04.397Z,11.75
2018-04-08T10:37:32.562Z,11.40
2018-04-08T10:40:00.710Z,12.13
2018-04-08T10:42:28.882Z,13.05
2018-04-08T10:44:57.031Z,11.88
2018-04-08T10:47:25.201Z,12.65
2018-04-08T10:49:53.345Z,12.40
2018-04-08T10:52:21.517Z,13.43
2018-04-08T10:54:49.666Z,12.68
2018-04-08T10:57:18.619Z,13.07
2018-04-08T10:59:46.766Z,12.48
2018-04-08T11:02:14.917Z,13.07
2018-04-08T11:04:43.827Z,12.88
2018-04-08T11:07:11.963Z,12.55
2018-04-08T11:09:40.141Z,12.95
2018-04-08T11:12:09.115Z,13.48
2018-04-08T11:14:37.797Z,11.73
2018-04-08T11:17:06.654Z,12.82
2018-04-08T11:19:34.826Z,10.85
2018-04-08T11:22:03.764Z,12.18
2018-04-08T11:24:32.356Z,11.00
2018-04-08T11:27:01.273Z,10.15
2018-04-08T11:29:29.446Z,10.77
2018-04-08T11:31:57.600Z,10.30
2018-04-08T11:34:25.767Z,9.73
2018-04-08T11:36:54.668Z,11.50
2018-04-08T11:39:22.837Z,11.60
2018-04-08T11:41:50.992Z,12.43
2018-04-08T11:44:20.166Z,10.90
2018-04-08T11:46:48.333Z,11.17
2018-04-08T11:49:16.508Z,11.07
2018-04-08T11:51:44.658Z,10.13
2018-04-08T11:54:12.830Z,11.00
2018-04-08T11:56:40.979Z,10.40
2018-04-08T11:59:09.137Z,10.30
2018-04-08T12:01:37.273Z,10.33
2018-04-08T12:04:05.445Z,9.97
2018-04-08T12:06:33.590Z,9.80
2018-04-08T12:09:01.994Z,10.60
2018-04-08T12:11:30.138Z,10.20
2018-04-08T12:13:58.314Z,9.17
2018-04-08T12:16:27.216Z,8.67
2018-04-08T12:18:56.278Z,9.43
2018-04-08T12:21:25.268Z,10.80
2018-04-08T12:23:53.469Z,9.00
2018-04-08T12:26:22.000Z,9.80
2018-04-08T12:28:50.161Z,10.70
2018-04-08T12:31:19.032Z,8.80
2018-04-08T12:33:47.209Z,7.83
2018-04-08T12:36:15.346Z,8.83
2018-04-08T12:38:43.473Z,7.67
2018-04-08T12:41:11.637Z,8.10
2018-04-08T12:43:40.421Z,7.73
2018-04-08T12:46:08.877Z,7.40
2018-04-08T12:48:37.012Z,7.20
2018-04-08T12:51:05.168Z,8.10
2018-04-08T12:53:34.142Z,8.00
2018-04-08T12:56:02.302Z,8.20
2018-04-08T12:58:30.429Z,8.10
2018-04-08T13:00:58.587Z,7.10
2018-04-08T13:03:26.717Z,7.00
2018-04-08T13:05:54.877Z,6.40
2018-04-08T13:08:24.237Z,6.60
2018-04-08T13:10:52.975Z,6.30
2018-04-08T13:13:22.353Z,6.93
2018-04-08T13:15:50.567Z,6.20
2018-04-08T13:18:18.701Z,5.83
2018-04-08T13:20:47.333Z,6.07
2018-04-08T13:23:15.469Z,5.50
2018-04-08T13:25:43.624Z,6.23
2018-04-08T13:28:13.501Z,5.80
2018-04-08T13:30:42.154Z,6.23
2018-04-08T13:33:11.014Z,5.83
2018-04-08T13:35:39.171Z,5.37
2018-04-08T13:38:08.161Z,5.90
2018-04-08T13:40:36.849Z,4.80
2018-04-08T13:43:08.378Z,4.17
2018-04-08T13:45:36.949Z,5.17
2018-04-08T13:48:06.069Z,4.10
2018-04-08T13:50:35.146Z,4.23
2018-04-08T13:53:03.280Z,4.43
2018-04-08T13:55:33.754Z,4.40
2018-04-08T13:58:03.047Z,5.60
2018-04-08T14:00:36.389Z,4.43
2018-04-08T14:03:04.542Z,4.10
2018-04-08T14:05:33.184Z,4.10
2018-04-08T14:08:01.349Z,4.07
2018-04-08T14:10:31.408Z,4.30
2018-04-08T14:12:59.556Z,4.20
2018-04-08T14:15:29.502Z,9.60
2018-04-08T14:17:57.664Z,3.93
2018-04-08T14:20:26.250Z,4.30
2018-04-08T14:22:55.177Z,4.20
2018-04-08T14:25:24.235Z,5.22
2018-04-08T14:27:53.599Z,5.07
2018-04-08T14:30:22.290Z,4.60
2018-04-08T14:32:50.465Z,5.07
2018-04-08T14:35:21.322Z,5.10
2018-04-08T14:37:50.249Z,4.73
2018-04-08T14:40:19.666Z,5.00
2018-04-08T14:42:48.734Z,4.87
2018-04-08T14:45:16.869Z,4.90
2018-04-08T14:47:45.037Z,4.70
2018-04-08T14:50:13.528Z,5.50
2018-04-08T14:52:41.691Z,5.57
2018-04-08T14:55:09.829Z,4.73
2018-04-08T14:57:37.998Z,5.60
2018-04-08T15:00:06.679Z,5.10
2018-04-08T15:02:34.842Z,5.63
2018-04-08T15:05:02.978Z,4.93
2018-04-08T15:07:31.230Z,4.53
2018-04-08T15:09:59.908Z,4.60
2018-04-08T15:12:29.578Z,6.07
2018-04-08T15:14:58.366Z,5.47
2018-04-08T15:17:26.536Z,5.30
2018-04-08T15:19:54.678Z,5.77
2018-04-08T15:22:22.833Z,5.97
2018-04-08T15:24:51.525Z,6.47
2018-04-08T15:27:19.955Z,5.73
2018-04-08T15:29:48.855Z,6.43
2018-04-08T15:32:17.582Z,5.10
2018-04-08T15:34:45.705Z,5.67
2018-04-08T15:37:13.860Z,6.20
2018-04-08T15:39:42.003Z,5.93
2018-04-08T15:42:10.163Z,5.93
2018-04-08T15:44:38.309Z,6.60
2018-04-08T15:47:06.465Z,6.20
2018-04-08T15:49:34.603Z,5.53
2018-04-08T15:52:03.529Z,6.70
2018-04-08T15:54:32.302Z,5.90
2018-04-08T15:57:00.466Z,6.30
2018-04-08T15:59:28.601Z,5.67
2018-04-08T16:01:57.618Z,6.20
2018-04-08T16:04:25.783Z,6.17
2018-04-08T16:06:53.941Z,6.93
2018-04-08T16:09:22.655Z,7.07
2018-04-08T16:11:50.904Z,6.73
2018-04-08T16:14:19.068Z,7.30
2018-04-08T16:16:47.226Z,6.87
2018-04-08T16:19:15.349Z,6.40
2018-04-08T16:21:47.757Z,6.07
2018-04-08T16:24:16.389Z,7.07
2018-04-08T16:26:46.609Z,6.17
2018-04-08T16:29:16.534Z,6.97
2018-04-08T16:31:46.983Z,7.70
2018-04-08T16:34:15.565Z,6.90
2018-04-08T16:36:44.645Z,6.37
2018-04-08T16:39:13.906Z,6.87
2018-04-08T16:41:44.101Z,6.67
2018-04-08T16:44:13.504Z,7.28
2018-04-08T16:46:42.801Z,6.90
2018-04-08T16:49:11.192Z,7.27
2018-04-08T16:51:39.363Z,7.03
2018-04-08T16:54:08.524Z,7.15
2018-04-08T16:56:37.530Z,7.27
2018-04-08T16:59:06.863Z,7.30
2018-04-08T17:01:35.552Z,7.93
2018-04-08T17:04:04.429Z,7.47
2018-04-08T17:06:32.643Z,6.53
2018-04-08T17:09:02.346Z,7.07
2018-04-08T17:11:32.075Z,6.85
2018-04-08T17:14:01.068Z,7.50
2018-04-08T17:16:29.918Z,7.20
2018-04-08T17:18:58.093Z,7.45
2018-04-08T17:21:27.044Z,6.53
2018-04-08T17:23:55.418Z,8.23
2018-04-08T17:26:25.247Z,7.43
2018-04-08T17:28:53.421Z,6.60
2018-04-08T17:31:21.621Z,8.23
2018-04-08T17:33:49.780Z,7.05
2018-04-08T17:36:18.538Z,7.35
2018-04-08T17:38:47.086Z,7.90
2018-04-08T17:41:18.026Z,7.78
2018-04-08T17:43:46.187Z,8.65
2018-04-08T17:46:14.967Z,8.52
2018-04-08T17:48:43.152Z,7.78
2018-04-08T17:51:11.377Z,7.50
2018-04-08T17:53:39.541Z,8.38
2018-04-08T17:56:07.711Z,7.25
2018-04-08T17:58:35.860Z,7.53
2018-04-08T18:01:04.040Z,8.50
2018-04-08T18:03:33.609Z,8.30
2018-04-08T18:06:01.808Z,8.30
2018-04-08T18:08:29.944Z,8.15
2018-04-08T18:10:58.113Z,8.88
2018-04-08T18:13:26.259Z,8.85
2018-04-08T18:15:55.561Z,9.40
2018-04-08T18:18:23.706Z,8.57
2018-04-08T18:20:52.715Z,9.23
2018-04-08T18:23:21.612Z,9.18
2018-04-08T18:25:50.375Z,9.43
2018-04-08T18:28:20.342Z,9.77
2018-04-08T18:30:49.326Z,8.70
2018-04-08T18:33:19.546Z,9.73
2018-04-08T18:35:47.714Z,9.02
2018-04-08T18:38:15.845Z,9.52
2018-04-08T18:40:44.554Z,8.73
2018-04-08T18:43:13.820Z,9.32
2018-04-08T18:45:43.643Z,9.45
2018-04-08T18:48:11.792Z,9.68
2018-04-08T18:50:39.999Z,9.43
2018-04-08T18:53:10.027Z,10.00
2018-04-08T18:55:38.189Z,9.95
2018-04-08T18:58:06.360Z,9.20
2018-04-08T19:00:36.323Z,9.57
2018-04-08T19:03:04.461Z,9.55
2018-04-08T19:05:33.406Z,9.23
2018-04-08T19:08:01.548Z,9.77
2018-04-08T19:10:31.064Z,9.55
2018-04-08T19:13:00.605Z,11.80
2018-04-08T19:15:31.454Z,12.63
2018-04-08T19:18:02.904Z,12.25
2018-04-08T19:20:32.842Z,13.90
2018-04-08T19:23:01.020Z,12.85
2018-04-08T19:25:29.165Z,13.07
2018-04-08T19:27:58.216Z,11.15
2018-04-08T19:30:26.359Z,11.45
2018-04-08T19:32:57.685Z,15.15
2018-04-08T19:35:25.819Z,11.68
2018-04-08T19:37:53.981Z,12.40
2018-04-08T19:40:22.595Z,12.90
2018-04-08T19:42:50.805Z,13.05
2018-04-08T19:45:19.583Z,13.40
2018-04-08T19:47:47.807Z,13.70
2018-04-08T19:50:16.470Z,14.80
2018-04-08T19:52:44.684Z,13.23
2018-04-08T19:55:12.814Z,13.82
2018-04-08T19:57:41.035Z,12.13
2018-04-08T20:00:09.177Z,13.57
2018-04-08T20:02:38.069Z,14.60
2018-04-08T20:05:06.205Z,13.38
2018-04-08T20:07:34.376Z,14.52
2018-04-08T20:10:03.499Z,14.73
2018-04-08T20:12:31.671Z,13.13
2018-04-08T20:14:59.841Z,13.85
2018-04-08T20:17:28.009Z,13.80
2018-04-08T20:19:56.145Z,13.60
2018-04-08T20:22:24.306Z,13.35
2018-04-08T20:24:52.441Z,13.75
2018-04-08T20:27:22.424Z,15.15
2018-04-08T20:29:52.200Z,14.00
2018-04-08T20:32:20.840Z,12.77
2018-04-08T20:34:48.978Z,14.18
2018-04-08T20:37:18.073Z,15.05
2018-04-08T20:39:47.741Z,13.85
2018-04-08T20:42:15.908Z,14.85
2018-04-08T20:44:44.041Z,14.85
2018-04-08T20:47:12.208Z,14.38
2018-04-08T20:49:41.109Z,15.70
2018-04-08T20:52:09.280Z,14.75
2018-04-08T20:54:37.417Z,15.75
2018-04-08T20:57:05.597Z,15.85
2018-04-08T20:59:33.774Z,13.68
2018-04-08T21:02:02.618Z,13.82
2018-04-08T21:04:30.781Z,16.12
2018-04-08T21:06:58.923Z,15.13
2018-04-08T21:09:27.850Z,14.90
2018-04-08T21:11:55.986Z,15.05
2018-04-08T21:14:24.925Z,14.55
2018-04-08T21:16:53.061Z,17.05
2018-04-08T21:19:21.478Z,14.93
2018-04-08T21:21:49.613Z,17.02
2018-04-08T21:24:17.778Z,16.33
2018-04-08T21:26:45.919Z,15.63
2018-04-08T21:29:14.106Z,18.50
2018-04-08T21:31:46.394Z,16.12
2018-04-08T21:34:15.354Z,15.73
2018-04-08T21:36:43.493Z,16.35
2018-04-08T21:39:11.653Z,15.18
2018-04-08T21:41:39.790Z,17.08
2018-04-08T21:44:07.955Z,17.95
2018-04-08T21:46:36.109Z,18.52
2018-04-08T21:49:04.272Z,17.37
2018-04-08T21:51:32.429Z,17.00
2018-04-08T21:54:00.593Z,18.00
2018-04-08T21:56:28.720Z,15.80
2018-04-08T21:58:56.872Z,18.30
2018-04-08T22:01:25.013Z,16.30
2018-04-08T22:03:53.147Z,18.33
2018-04-08T22:06:22.782Z,19.65
2018-04-08T22:08:50.931Z,18.40
2018-04-08T22:11:19.084Z,18.00
2018-04-08T22:13:47.218Z,17.90
2018-04-08T22:16:15.380Z,18.77
2018-04-08T22:18:43.514Z,19.62
2018-04-08T22:21:11.673Z,18.52
2018-04-08T22:23:39.822Z,17.58
2018-04-08T22:26:07.982Z,17.33
2018-04-08T22:28:36.115Z,17.67
2018-04-08T22:31:04.268Z,19.17
2018-04-08T22:33:32.397Z,18.95
2018-04-08T22:36:00.557Z,18.83
2018-04-08T22:38:28.693Z,22.10
2018-04-08T22:40:56.848Z,20.95
2018-04-08T22:43:24.978Z,21.62
2018-04-08T22:45:53.137Z,19.87
2018-04-08T22:48:21.268Z,19.85
2018-04-08T22:50:49.425Z,19.23
2018-04-08T22:53:17.562Z,20.23
2018-04-08T22:55:45.721Z,20.60
2018-04-08T22:58:13.855Z,20.10
2018-04-08T23:00:42.013Z,20.75
2018-04-08T23:03:10.149Z,22.25
2018-04-08T23:05:38.306Z,21.75
2018-04-08T23:08:06.447Z,19.83
2018-04-08T23:10:34.609Z,20.83
2018-04-08T23:13:02.742Z,20.90
2018-04-08T23:15:30.905Z,18.05
2018-04-08T23:17:59.041Z,18.87
2018-04-08T23:20:27.178Z,20.10
2018-04-08T23:22:55.337Z,21.60
2018-04-08T23:25:23.469Z,22.27
2018-04-08T23:27:52.389Z,22.42
2018-04-08T23:30:20.522Z,17.67
2018-04-08T23:32:49.273Z,19.58
2018-04-08T23:35:17.408Z,19.00
2018-04-08T23:37:45.569Z,20.77
2018-04-08T23:40:13.703Z,21.62
2018-04-08T23:42:41.861Z,21.45
2018-04-08T23:45:09.991Z,21.77
2018-04-08T23:47:38.144Z,21.45
2018-04-08T23:50:06.285Z,19.90
2018-04-08T23:52:34.447Z,22.92
2018-04-08T23:55:02.584Z,19.58
2018-04-08T23:57:30.737Z,19.48
2018-04-08T23:59:58.869Z,22.90
